KAVC

Mecklenburg-Brunswick Regional Airport

South Hill, Virginia, USA
METAR KAVC 231455Z AUTO 25004KT 10SM SCT024 27/22 A3009 RMK AO2 T02700224
Observed Flight Rules
May-23 @ 14:55 UTC (10 minutes ago) Visual Flight Rules
Wind Visibility Clouds
250° at 4 knots 10 miles
  • Scattered at 2,400' AGL
Temperatures Readings
Current 27°C / 81°F
Dewpoint 22°C / 72°F
Humidity 74%
Altimeter 30.09" Hg
Pressure 1019 hPa
Elevation 135
METAR KAVC 231455Z AUTO 25004KT 10SM SCT024 27/22 A3009 RMK AO2 T02700224
Observed Flight Rules
May-23 @ 14:55 UTC
(10 minutes ago)
VFR
Wind Visibility
250° at 4 knots 10 miles
Clouds
  • Scattered at 2,400' AGL
Temperature Dewpoint
27°C / 81°F 22°C / 72°F
Humidity Altimeter Pressure
74% 30.09" Hg 1019 hPa